sensor_id;sensor_type;location;lat;lon;timestamp;temperature;humidity
7496;DHT22;3789;47.064;15.482;2023-03-23T00:01:33;10.40;99.90
7496;DHT22;3789;47.064;15.482;2023-03-23T00:04:04;10.30;99.90
7496;DHT22;3789;47.064;15.482;2023-03-23T00:06:30;10.20;99.90
7496;DHT22;3789;47.064;15.482;2023-03-23T00:09:01;10.20;99.90
7496;DHT22;3789;47.064;15.482;2023-03-23T00:11:30;10.20;99.90
7496;DHT22;3789;47.064;15.482;2023-03-23T00:14:00;10.20;99.90
7496;DHT22;3789;47.064;15.482;2023-03-23T00:16:30;10.30;99.90
7496;DHT22;3789;47.064;15.482;2023-03-23T00:19:05;10.30;99.90
7496;DHT22;3789;47.064;15.482;2023-03-23T00:21:35;10.40;99.90
7496;DHT22;3789;47.064;15.482;2023-03-23T00:24:08;10.40;99.90
7496;DHT22;3789;47.064;15.482;2023-03-23T00:26:37;10.40;99.90
7496;DHT22;3789;47.064;15.482;2023-03-23T00:29:17;10.40;99.90
7496;DHT22;3789;47.064;15.482;2023-03-23T00:31:47;10.40;99.90
7496;DHT22;3789;47.064;15.482;2023-03-23T00:34:17;10.30;99.90
7496;DHT22;3789;47.064;15.482;2023-03-23T00:36:51;10.30;99.90
7496;DHT22;3789;47.064;15.482;2023-03-23T00:39:20;10.40;99.90
7496;DHT22;3789;47.064;15.482;2023-03-23T00:41:46;10.30;99.90
7496;DHT22;3789;47.064;15.482;2023-03-23T00:44:14;10.30;99.90
7496;DHT22;3789;47.064;15.482;2023-03-23T00:46:46;10.20;99.90
7496;DHT22;3789;47.064;15.482;2023-03-23T00:49:22;10.00;99.90
7496;DHT22;3789;47.064;15.482;2023-03-23T00:51:56;10.00;99.90
7496;DHT22;3789;47.064;15.482;2023-03-23T00:54:24;9.90;99.90
7496;DHT22;3789;47.064;15.482;2023-03-23T00:57:03;9.80;99.90
7496;DHT22;3789;47.064;15.482;2023-03-23T00:59:31;9.70;99.90
7496;DHT22;3789;47.064;15.482;2023-03-23T01:01:59;9.70;99.90
7496;DHT22;3789;47.064;15.482;2023-03-23T01:04:26;9.70;99.90
7496;DHT22;3789;47.064;15.482;2023-03-23T01:07:00;9.60;99.90
7496;DHT22;3789;47.064;15.482;2023-03-23T01:09:27;9.60;99.90
7496;DHT22;3789;47.064;15.482;2023-03-23T01:11:53;9.60;99.90
7496;DHT22;3789;47.064;15.482;2023-03-23T01:14:22;9.50;99.90
7496;DHT22;3789;47.064;15.482;2023-03-23T01:16:49;9.50;99.90
7496;DHT22;3789;47.064;15.482;2023-03-23T01:19:17;9.50;99.90
7496;DHT22;3789;47.064;15.482;2023-03-23T01:21:44;9.50;99.90
7496;DHT22;3789;47.064;15.482;2023-03-23T01:24:11;9.50;99.90
7496;DHT22;3789;47.064;15.482;2023-03-23T01:26:41;9.40;99.90
7496;DHT22;3789;47.064;15.482;2023-03-23T01:29:09;9.40;99.90
7496;DHT22;3789;47.064;15.482;2023-03-23T01:31:37;9.40;99.90
7496;DHT22;3789;47.064;15.482;2023-03-23T01:34:06;9.40;99.90
7496;DHT22;3789;47.064;15.482;2023-03-23T01:36:33;9.40;99.90
7496;DHT22;3789;47.064;15.482;2023-03-23T01:39:04;9.30;99.90
7496;DHT22;3789;47.064;15.482;2023-03-23T01:41:34;9.30;99.90
7496;DHT22;3789;47.064;15.482;2023-03-23T01:46:45;9.20;99.90
7496;DHT22;3789;47.064;15.482;2023-03-23T01:49:44;9.10;99.90
7496;DHT22;3789;47.064;15.482;2023-03-23T01:52:22;9.10;99.90
7496;DHT22;3789;47.064;15.482;2023-03-23T01:54:55;9.10;99.90
7496;DHT22;3789;47.064;15.482;2023-03-23T01:57:25;9.00;99.90
7496;DHT22;3789;47.064;15.482;2023-03-23T01:59:54;8.90;99.90
7496;DHT22;3789;47.064;15.482;2023-03-23T02:02:25;8.80;99.90
7496;DHT22;3789;47.064;15.482;2023-03-23T02:04:59;8.80;99.90
7496;DHT22;3789;47.064;15.482;2023-03-23T02:07:26;8.70;99.90
7496;DHT22;3789;47.064;15.482;2023-03-23T02:09:53;8.70;99.90
7496;DHT22;3789;47.064;15.482;2023-03-23T02:12:22;8.80;99.90
7496;DHT22;3789;47.064;15.482;2023-03-23T02:14:49;8.80;99.90
7496;DHT22;3789;47.064;15.482;2023-03-23T02:17:46;8.80;99.90
7496;DHT22;3789;47.064;15.482;2023-03-23T02:26:42;8.70;99.90
7496;DHT22;3789;47.064;15.482;2023-03-23T02:35:03;8.70;99.90
7496;DHT22;3789;47.064;15.482;2023-03-23T02:40:33;8.60;99.90
7496;DHT22;3789;47.064;15.482;2023-03-23T02:43:59;8.60;99.90
7496;DHT22;3789;47.064;15.482;2023-03-23T02:49:36;8.60;99.90
7496;DHT22;3789;47.064;15.482;2023-03-23T02:52:27;8.50;99.90
7496;DHT22;3789;47.064;15.482;2023-03-23T02:55:23;8.50;99.90
7496;DHT22;3789;47.064;15.482;2023-03-23T02:58:03;8.50;99.90
7496;DHT22;3789;47.064;15.482;2023-03-23T03:00:50;8.50;99.90
7496;DHT22;3789;47.064;15.482;2023-03-23T03:03:28;8.40;99.90
7496;DHT22;3789;47.064;15.482;2023-03-23T03:09:47;8.20;99.90
7496;DHT22;3789;47.064;15.482;2023-03-23T03:15:44;8.20;99.90
7496;DHT22;3789;47.064;15.482;2023-03-23T03:18:32;8.20;99.90
7496;DHT22;3789;47.064;15.482;2023-03-23T03:21:09;8.30;99.90
7496;DHT22;3789;47.064;15.482;2023-03-23T03:23:56;8.20;99.90
7496;DHT22;3789;47.064;15.482;2023-03-23T03:26:50;8.20;99.90
7496;DHT22;3789;47.064;15.482;2023-03-23T03:30:08;8.10;99.90
7496;DHT22;3789;47.064;15.482;2023-03-23T03:33:28;8.20;99.90
7496;DHT22;3789;47.064;15.482;2023-03-23T03:36:08;8.10;99.90
7496;DHT22;3789;47.064;15.482;2023-03-23T03:38:54;8.10;99.90
7496;DHT22;3789;47.064;15.482;2023-03-23T03:41:43;8.10;99.90
7496;DHT22;3789;47.064;15.482;2023-03-23T03:44:22;8.10;99.90
7496;DHT22;3789;47.064;15.482;2023-03-23T03:47:09;8.10;99.90
7496;DHT22;3789;47.064;15.482;2023-03-23T03:53:05;8.20;99.90
7496;DHT22;3789;47.064;15.482;2023-03-23T03:55:49;8.20;99.90
7496;DHT22;3789;47.064;15.482;2023-03-23T03:58:46;8.10;99.90
7496;DHT22;3789;47.064;15.482;2023-03-23T04:01:42;8.10;99.90
7496;DHT22;3789;47.064;15.482;2023-03-23T04:04:14;8.00;99.90
7496;DHT22;3789;47.064;15.482;2023-03-23T04:06:48;8.10;99.90
7496;DHT22;3789;47.064;15.482;2023-03-23T04:09:35;8.00;99.90
7496;DHT22;3789;47.064;15.482;2023-03-23T04:12:13;8.00;99.90
7496;DHT22;3789;47.064;15.482;2023-03-23T04:15:21;7.90;99.90
7496;DHT22;3789;47.064;15.482;2023-03-23T04:17:55;8.00;99.90
7496;DHT22;3789;47.064;15.482;2023-03-23T04:20:27;8.00;99.90
7496;DHT22;3789;47.064;15.482;2023-03-23T04:22:57;7.90;99.90
7496;DHT22;3789;47.064;15.482;2023-03-23T04:25:25;7.80;99.90
7496;DHT22;3789;47.064;15.482;2023-03-23T04:27:56;7.70;99.90
7496;DHT22;3789;47.064;15.482;2023-03-23T04:30:24;7.70;99.90
7496;DHT22;3789;47.064;15.482;2023-03-23T04:33:00;7.80;99.90
7496;DHT22;3789;47.064;15.482;2023-03-23T04:35:28;7.80;99.90
7496;DHT22;3789;47.064;15.482;2023-03-23T04:38:09;7.80;99.90
7496;DHT22;3789;47.064;15.482;2023-03-23T04:40:43;7.80;99.90
7496;DHT22;3789;47.064;15.482;2023-03-23T04:43:22;7.80;99.90
7496;DHT22;3789;47.064;15.482;2023-03-23T04:45:55;7.80;99.90
7496;DHT22;3789;47.064;15.482;2023-03-23T04:48:31;7.80;99.90
7496;DHT22;3789;47.064;15.482;2023-03-23T04:51:02;7.80;99.90
7496;DHT22;3789;47.064;15.482;2023-03-23T04:53:31;7.90;99.90
7496;DHT22;3789;47.064;15.482;2023-03-23T04:55:58;7.90;99.90
7496;DHT22;3789;47.064;15.482;2023-03-23T04:58:29;7.90;99.90
7496;DHT22;3789;47.064;15.482;2023-03-23T05:01:03;7.90;99.90
7496;DHT22;3789;47.064;15.482;2023-03-23T05:03:33;7.90;99.90
7496;DHT22;3789;47.064;15.482;2023-03-23T05:06:02;7.90;99.90
7496;DHT22;3789;47.064;15.482;2023-03-23T05:08:29;8.00;99.90
7496;DHT22;3789;47.064;15.482;2023-03-23T05:10:58;8.00;99.90
7496;DHT22;3789;47.064;15.482;2023-03-23T05:13:28;8.10;99.90
7496;DHT22;3789;47.064;15.482;2023-03-23T05:15:55;8.20;99.90
7496;DHT22;3789;47.064;15.482;2023-03-23T05:18:22;8.20;99.90
7496;DHT22;3789;47.064;15.482;2023-03-23T05:20:48;8.50;99.90
7496;DHT22;3789;47.064;15.482;2023-03-23T05:23:17;8.80;99.90
7496;DHT22;3789;47.064;15.482;2023-03-23T05:25:58;9.10;99.90
7496;DHT22;3789;47.064;15.482;2023-03-23T05:28:31;9.40;99.90
7496;DHT22;3789;47.064;15.482;2023-03-23T05:30:57;9.70;99.90
7496;DHT22;3789;47.064;15.482;2023-03-23T05:33:24;9.70;99.90
7496;DHT22;3789;47.064;15.482;2023-03-23T05:35:53;9.80;99.90
7496;DHT22;3789;47.064;15.482;2023-03-23T05:38:29;9.80;99.90
7496;DHT22;3789;47.064;15.482;2023-03-23T05:41:00;9.80;99.90
7496;DHT22;3789;47.064;15.482;2023-03-23T05:43:27;9.80;99.90
7496;DHT22;3789;47.064;15.482;2023-03-23T05:45:54;9.80;99.90
7496;DHT22;3789;47.064;15.482;2023-03-23T05:48:31;10.00;99.90
7496;DHT22;3789;47.064;15.482;2023-03-23T05:50:59;10.20;99.90
7496;DHT22;3789;47.064;15.482;2023-03-23T05:53:32;10.30;99.90
7496;DHT22;3789;47.064;15.482;2023-03-23T05:56:01;10.60;99.90
7496;DHT22;3789;47.064;15.482;2023-03-23T05:58:30;10.70;99.90
7496;DHT22;3789;47.064;15.482;2023-03-23T06:00:57;10.90;99.90
7496;DHT22;3789;47.064;15.482;2023-03-23T06:03:25;11.00;99.90
7496;DHT22;3789;47.064;15.482;2023-03-23T06:05:52;11.10;99.90
7496;DHT22;3789;47.064;15.482;2023-03-23T06:08:20;11.20;99.90
7496;DHT22;3789;47.064;15.482;2023-03-23T06:10:48;11.20;99.90
7496;DHT22;3789;47.064;15.482;2023-03-23T06:13:16;11.20;99.90
7496;DHT22;3789;47.064;15.482;2023-03-23T06:15:43;11.30;99.90
7496;DHT22;3789;47.064;15.482;2023-03-23T06:18:10;11.40;99.90
7496;DHT22;3789;47.064;15.482;2023-03-23T06:20:39;11.40;99.90
7496;DHT22;3789;47.064;15.482;2023-03-23T06:23:08;11.40;99.90
7496;DHT22;3789;47.064;15.482;2023-03-23T06:25:39;11.50;99.90
7496;DHT22;3789;47.064;15.482;2023-03-23T06:28:08;11.60;99.90
7496;DHT22;3789;47.064;15.482;2023-03-23T06:30:40;11.80;99.90
7496;DHT22;3789;47.064;15.482;2023-03-23T06:33:07;11.90;99.90
7496;DHT22;3789;47.064;15.482;2023-03-23T06:35:36;12.00;99.90
7496;DHT22;3789;47.064;15.482;2023-03-23T06:38:05;12.20;99.90
7496;DHT22;3789;47.064;15.482;2023-03-23T06:40:32;12.20;99.90
7496;DHT22;3789;47.064;15.482;2023-03-23T06:42:59;12.30;99.90
7496;DHT22;3789;47.064;15.482;2023-03-23T06:45:27;12.20;99.90
7496;DHT22;3789;47.064;15.482;2023-03-23T06:47:55;12.40;99.90
7496;DHT22;3789;47.064;15.482;2023-03-23T06:50:22;12.60;99.90
7496;DHT22;3789;47.064;15.482;2023-03-23T06:52:50;12.80;99.90
7496;DHT22;3789;47.064;15.482;2023-03-23T06:55:27;12.90;99.90
7496;DHT22;3789;47.064;15.482;2023-03-23T06:57:57;13.10;99.90
7496;DHT22;3789;47.064;15.482;2023-03-23T07:00:28;13.30;99.90
7496;DHT22;3789;47.064;15.482;2023-03-23T07:02:57;13.50;99.90
7496;DHT22;3789;47.064;15.482;2023-03-23T07:05:24;13.90;99.90
7496;DHT22;3789;47.064;15.482;2023-03-23T07:07:57;14.30;99.90
7496;DHT22;3789;47.064;15.482;2023-03-23T07:10:24;14.90;99.90
7496;DHT22;3789;47.064;15.482;2023-03-23T07:12:54;15.30;99.90
7496;DHT22;3789;47.064;15.482;2023-03-23T07:15:22;15.90;99.90
7496;DHT22;3789;47.064;15.482;2023-03-23T07:17:50;16.30;99.90
7496;DHT22;3789;47.064;15.482;2023-03-23T07:20:19;16.60;99.90
7496;DHT22;3789;47.064;15.482;2023-03-23T07:22:49;16.70;99.90
7496;DHT22;3789;47.064;15.482;2023-03-23T07:25:19;16.60;99.90
7496;DHT22;3789;47.064;15.482;2023-03-23T07:27:46;16.40;99.90
7496;DHT22;3789;47.064;15.482;2023-03-23T07:30:15;16.20;99.90
7496;DHT22;3789;47.064;15.482;2023-03-23T07:32:42;16.40;99.90
7496;DHT22;3789;47.064;15.482;2023-03-23T07:35:09;16.40;99.90
7496;DHT22;3789;47.064;15.482;2023-03-23T07:37:37;16.40;99.80
7496;DHT22;3789;47.064;15.482;2023-03-23T07:40:05;16.80;99.90
7496;DHT22;3789;47.064;15.482;2023-03-23T07:42:46;17.10;99.90
7496;DHT22;3789;47.064;15.482;2023-03-23T07:45:18;17.40;99.60
7496;DHT22;3789;47.064;15.482;2023-03-23T07:47:44;17.70;99.40
7496;DHT22;3789;47.064;15.482;2023-03-23T07:50:12;17.90;99.10
7496;DHT22;3789;47.064;15.482;2023-03-23T07:52:38;18.00;98.40
7496;DHT22;3789;47.064;15.482;2023-03-23T07:55:11;18.50;98.00
7496;DHT22;3789;47.064;15.482;2023-03-23T07:57:52;18.90;98.00
7496;DHT22;3789;47.064;15.482;2023-03-23T08:00:21;19.10;97.30
7496;DHT22;3789;47.064;15.482;2023-03-23T08:02:56;19.00;97.10
7496;DHT22;3789;47.064;15.482;2023-03-23T08:05:26;18.90;96.50
7496;DHT22;3789;47.064;15.482;2023-03-23T08:07:55;18.80;96.70
7496;DHT22;3789;47.064;15.482;2023-03-23T08:10:24;18.70;96.20
7496;DHT22;3789;47.064;15.482;2023-03-23T08:12:53;18.50;96.70
7496;DHT22;3789;47.064;15.482;2023-03-23T08:15:23;18.20;97.80
7496;DHT22;3789;47.064;15.482;2023-03-23T08:17:50;17.90;97.70
7496;DHT22;3789;47.064;15.482;2023-03-23T08:20:21;17.90;98.10
7496;DHT22;3789;47.064;15.482;2023-03-23T08:22:55;17.80;96.90
7496;DHT22;3789;47.064;15.482;2023-03-23T08:25:33;17.70;97.50
7496;DHT22;3789;47.064;15.482;2023-03-23T08:28:02;17.60;97.80
7496;DHT22;3789;47.064;15.482;2023-03-23T08:30:31;17.60;97.30
7496;DHT22;3789;47.064;15.482;2023-03-23T08:33:00;17.60;97.60
7496;DHT22;3789;47.064;15.482;2023-03-23T08:35:28;17.70;97.50
7496;DHT22;3789;47.064;15.482;2023-03-23T08:37:56;17.80;98.50
7496;DHT22;3789;47.064;15.482;2023-03-23T08:40:25;17.80;98.00
7496;DHT22;3789;47.064;15.482;2023-03-23T08:42:54;17.90;97.50
7496;DHT22;3789;47.064;15.482;2023-03-23T08:45:27;18.10;97.90
7496;DHT22;3789;47.064;15.482;2023-03-23T08:47:54;18.20;97.40
7496;DHT22;3789;47.064;15.482;2023-03-23T08:50:25;18.30;98.50
7496;DHT22;3789;47.064;15.482;2023-03-23T08:52:53;18.30;97.30
7496;DHT22;3789;47.064;15.482;2023-03-23T08:55:22;16.90;88.50
7496;DHT22;3789;47.064;15.482;2023-03-23T08:57:49;14.30;89.90
7496;DHT22;3789;47.064;15.482;2023-03-23T09:00:20;12.10;91.30
7496;DHT22;3789;47.064;15.482;2023-03-23T09:02:50;10.50;92.90
7496;DHT22;3789;47.064;15.482;2023-03-23T09:05:21;9.40;95.30
7496;DHT22;3789;47.064;15.482;2023-03-23T09:07:52;8.80;97.40
7496;DHT22;3789;47.064;15.482;2023-03-23T09:10:20;8.50;98.30
7496;DHT22;3789;47.064;15.482;2023-03-23T09:12:49;8.30;99.90
7496;DHT22;3789;47.064;15.482;2023-03-23T09:15:17;8.30;99.90
7496;DHT22;3789;47.064;15.482;2023-03-23T09:17:49;8.20;99.90
7496;DHT22;3789;47.064;15.482;2023-03-23T09:20:22;8.30;99.90
7496;DHT22;3789;47.064;15.482;2023-03-23T09:22:52;8.30;99.90
7496;DHT22;3789;47.064;15.482;2023-03-23T09:25:22;8.60;99.90
7496;DHT22;3789;47.064;15.482;2023-03-23T09:27:58;8.90;99.90
7496;DHT22;3789;47.064;15.482;2023-03-23T09:30:31;9.10;99.90
7496;DHT22;3789;47.064;15.482;2023-03-23T09:33:03;9.10;99.90
7496;DHT22;3789;47.064;15.482;2023-03-23T09:35:33;8.90;99.90
7496;DHT22;3789;47.064;15.482;2023-03-23T09:38:02;8.90;99.90
7496;DHT22;3789;47.064;15.482;2023-03-23T09:46:29;11.70;99.90
7496;DHT22;3789;47.064;15.482;2023-03-23T09:49:34;12.60;99.90
7496;DHT22;3789;47.064;15.482;2023-03-23T09:52:37;13.50;99.90
7496;DHT22;3789;47.064;15.482;2023-03-23T09:55:11;14.40;99.90
7496;DHT22;3789;47.064;15.482;2023-03-23T09:57:56;15.00;99.90
7496;DHT22;3789;47.064;15.482;2023-03-23T10:00:49;15.40;99.90
7496;DHT22;3789;47.064;15.482;2023-03-23T10:03:20;16.10;99.90
7496;DHT22;3789;47.064;15.482;2023-03-23T10:05:56;16.80;99.90
7496;DHT22;3789;47.064;15.482;2023-03-23T10:08:26;17.30;99.90
7496;DHT22;3789;47.064;15.482;2023-03-23T10:14:36;17.90;99.90
7496;DHT22;3789;47.064;15.482;2023-03-23T10:25:43;18.80;99.90
7496;DHT22;3789;47.064;15.482;2023-03-23T10:28:20;19.00;99.60
7496;DHT22;3789;47.064;15.482;2023-03-23T10:30:59;19.30;98.80
7496;DHT22;3789;47.064;15.482;2023-03-23T10:33:41;19.40;98.90
7496;DHT22;3789;47.064;15.482;2023-03-23T10:36:30;19.50;98.40
7496;DHT22;3789;47.064;15.482;2023-03-23T10:39:33;19.50;99.30
7496;DHT22;3789;47.064;15.482;2023-03-23T10:42:05;19.60;98.60
7496;DHT22;3789;47.064;15.482;2023-03-23T10:44:34;19.70;99.10
7496;DHT22;3789;47.064;15.482;2023-03-23T10:47:06;19.90;99.90
7496;DHT22;3789;47.064;15.482;2023-03-23T10:49:52;20.10;98.60
7496;DHT22;3789;47.064;15.482;2023-03-23T10:52:42;20.20;98.30
7496;DHT22;3789;47.064;15.482;2023-03-23T10:55:19;20.20;97.00
7496;DHT22;3789;47.064;15.482;2023-03-23T10:58:29;20.10;97.90
7496;DHT22;3789;47.064;15.482;2023-03-23T11:01:04;20.30;97.30
7496;DHT22;3789;47.064;15.482;2023-03-23T11:03:45;20.20;97.20
7496;DHT22;3789;47.064;15.482;2023-03-23T11:06:29;20.00;96.00
7496;DHT22;3789;47.064;15.482;2023-03-23T11:09:09;20.20;95.40
7496;DHT22;3789;47.064;15.482;2023-03-23T11:11:54;20.30;96.60
7496;DHT22;3789;47.064;15.482;2023-03-23T11:14:35;20.30;95.80
7496;DHT22;3789;47.064;15.482;2023-03-23T11:17:23;20.20;96.10
7496;DHT22;3789;47.064;15.482;2023-03-23T11:19:51;20.10;95.60
7496;DHT22;3789;47.064;15.482;2023-03-23T11:22:24;20.20;94.80
7496;DHT22;3789;47.064;15.482;2023-03-23T11:25:04;20.30;95.30
7496;DHT22;3789;47.064;15.482;2023-03-23T11:27:32;20.50;96.40
7496;DHT22;3789;47.064;15.482;2023-03-23T11:30:09;20.60;94.50
7496;DHT22;3789;47.064;15.482;2023-03-23T11:32:36;20.70;95.40
7496;DHT22;3789;47.064;15.482;2023-03-23T11:35:16;20.80;94.30
7496;DHT22;3789;47.064;15.482;2023-03-23T11:37:53;20.80;94.00
7496;DHT22;3789;47.064;15.482;2023-03-23T11:40:47;20.80;94.40
7496;DHT22;3789;47.064;15.482;2023-03-23T11:43:24;20.90;94.40
7496;DHT22;3789;47.064;15.482;2023-03-23T11:49:08;20.80;93.80
7496;DHT22;3789;47.064;15.482;2023-03-23T11:51:48;20.70;92.80
7496;DHT22;3789;47.064;15.482;2023-03-23T11:54:33;20.60;93.10
7496;DHT22;3789;47.064;15.482;2023-03-23T11:57:11;20.50;92.60
7496;DHT22;3789;47.064;15.482;2023-03-23T11:59:51;20.40;93.60
7496;DHT22;3789;47.064;15.482;2023-03-23T12:06:05;20.30;93.60
7496;DHT22;3789;47.064;15.482;2023-03-23T12:12:18;20.20;94.10
7496;DHT22;3789;47.064;15.482;2023-03-23T12:26:32;20.40;93.10
7496;DHT22;3789;47.064;15.482;2023-03-23T12:44:07;20.50;94.50
7496;DHT22;3789;47.064;15.482;2023-03-23T12:52:45;20.70;93.90
7496;DHT22;3789;47.064;15.482;2023-03-23T12:55:39;20.70;93.70
7496;DHT22;3789;47.064;15.482;2023-03-23T12:58:25;20.70;94.10
7496;DHT22;3789;47.064;15.482;2023-03-23T13:01:14;20.70;93.60
7496;DHT22;3789;47.064;15.482;2023-03-23T13:06:45;20.90;93.90
7496;DHT22;3789;47.064;15.482;2023-03-23T13:12:18;20.80;92.90
7496;DHT22;3789;47.064;15.482;2023-03-23T13:15:01;20.80;93.30
7496;DHT22;3789;47.064;15.482;2023-03-23T13:23:45;20.70;92.80
7496;DHT22;3789;47.064;15.482;2023-03-23T13:26:30;20.70;92.90
7496;DHT22;3789;47.064;15.482;2023-03-23T13:29:11;20.80;92.50
7496;DHT22;3789;47.064;15.482;2023-03-23T13:31:40;20.70;93.20
7496;DHT22;3789;47.064;15.482;2023-03-23T13:34:28;20.50;93.00
7496;DHT22;3789;47.064;15.482;2023-03-23T13:36:58;20.50;93.50
7496;DHT22;3789;47.064;15.482;2023-03-23T13:39:37;20.50;92.90
7496;DHT22;3789;47.064;15.482;2023-03-23T13:42:47;20.40;93.80
7496;DHT22;3789;47.064;15.482;2023-03-23T13:45:35;20.40;93.30
7496;DHT22;3789;47.064;15.482;2023-03-23T13:50:58;20.10;93.00
7496;DHT22;3789;47.064;15.482;2023-03-23T13:53:47;20.00;93.10
7496;DHT22;3789;47.064;15.482;2023-03-23T13:59:31;19.90;93.50
7496;DHT22;3789;47.064;15.482;2023-03-23T14:10:53;20.00;92.30
7496;DHT22;3789;47.064;15.482;2023-03-23T14:16:32;20.00;92.80
7496;DHT22;3789;47.064;15.482;2023-03-23T14:19:29;20.00;92.20
7496;DHT22;3789;47.064;15.482;2023-03-23T14:21:59;19.90;91.80
7496;DHT22;3789;47.064;15.482;2023-03-23T14:24:39;19.90;91.50
7496;DHT22;3789;47.064;15.482;2023-03-23T14:27:21;19.70;92.00
7496;DHT22;3789;47.064;15.482;2023-03-23T14:29:59;19.70;92.10
7496;DHT22;3789;47.064;15.482;2023-03-23T14:32:29;19.60;91.80
7496;DHT22;3789;47.064;15.482;2023-03-23T14:35:00;19.60;92.20
7496;DHT22;3789;47.064;15.482;2023-03-23T14:37:31;19.60;92.10
7496;DHT22;3789;47.064;15.482;2023-03-23T14:39:59;19.60;92.00
7496;DHT22;3789;47.064;15.482;2023-03-23T14:42:35;19.60;92.40
7496;DHT22;3789;47.064;15.482;2023-03-23T14:45:05;19.50;91.50
7496;DHT22;3789;47.064;15.482;2023-03-23T14:47:39;19.50;91.70
7496;DHT22;3789;47.064;15.482;2023-03-23T14:50:30;19.50;91.00
7496;DHT22;3789;47.064;15.482;2023-03-23T14:56:21;19.50;90.80
7496;DHT22;3789;47.064;15.482;2023-03-23T14:58:50;19.50;91.40
7496;DHT22;3789;47.064;15.482;2023-03-23T15:01:31;19.50;90.80
7496;DHT22;3789;47.064;15.482;2023-03-23T15:04:24;19.40;91.60
7496;DHT22;3789;47.064;15.482;2023-03-23T15:07:00;19.40;90.80
7496;DHT22;3789;47.064;15.482;2023-03-23T15:09:30;19.40;91.40
7496;DHT22;3789;47.064;15.482;2023-03-23T15:12:03;19.30;91.50
7496;DHT22;3789;47.064;15.482;2023-03-23T15:17:17;19.30;91.70
7496;DHT22;3789;47.064;15.482;2023-03-23T15:19:44;19.40;91.30
7496;DHT22;3789;47.064;15.482;2023-03-23T15:22:29;19.30;92.00
7496;DHT22;3789;47.064;15.482;2023-03-23T15:28:22;19.30;91.70
7496;DHT22;3789;47.064;15.482;2023-03-23T15:30:56;19.30;92.10
7496;DHT22;3789;47.064;15.482;2023-03-23T15:33:34;19.30;91.10
7496;DHT22;3789;47.064;15.482;2023-03-23T15:36:14;19.20;91.20
7496;DHT22;3789;47.064;15.482;2023-03-23T15:38:43;19.20;92.10
7496;DHT22;3789;47.064;15.482;2023-03-23T15:41:32;19.20;91.30
7496;DHT22;3789;47.064;15.482;2023-03-23T15:44:12;19.20;91.50
7496;DHT22;3789;47.064;15.482;2023-03-23T15:46:51;19.20;91.60
7496;DHT22;3789;47.064;15.482;2023-03-23T15:49:21;19.10;92.00
7496;DHT22;3789;47.064;15.482;2023-03-23T15:51:53;19.10;92.20
7496;DHT22;3789;47.064;15.482;2023-03-23T15:54:20;19.10;91.20
7496;DHT22;3789;47.064;15.482;2023-03-23T15:56:49;19.10;91.60
7496;DHT22;3789;47.064;15.482;2023-03-23T15:59:17;19.10;91.90
7496;DHT22;3789;47.064;15.482;2023-03-23T16:01:46;19.10;92.10
7496;DHT22;3789;47.064;15.482;2023-03-23T16:04:18;19.10;92.30
7496;DHT22;3789;47.064;15.482;2023-03-23T16:06:47;19.10;92.10
7496;DHT22;3789;47.064;15.482;2023-03-23T16:09:19;19.10;91.90
7496;DHT22;3789;47.064;15.482;2023-03-23T16:11:51;19.00;92.00
7496;DHT22;3789;47.064;15.482;2023-03-23T16:14:21;19.10;92.20
7496;DHT22;3789;47.064;15.482;2023-03-23T16:16:50;19.00;92.50
7496;DHT22;3789;47.064;15.482;2023-03-23T16:19:20;18.90;92.50
7496;DHT22;3789;47.064;15.482;2023-03-23T16:21:52;18.90;92.50
7496;DHT22;3789;47.064;15.482;2023-03-23T16:24:21;18.90;92.60
7496;DHT22;3789;47.064;15.482;2023-03-23T16:26:48;18.80;92.40
7496;DHT22;3789;47.064;15.482;2023-03-23T16:29:17;18.80;92.50
7496;DHT22;3789;47.064;15.482;2023-03-23T16:32:06;18.70;92.50
7496;DHT22;3789;47.064;15.482;2023-03-23T16:34:36;18.70;92.60
7496;DHT22;3789;47.064;15.482;2023-03-23T16:37:12;18.60;92.60
7496;DHT22;3789;47.064;15.482;2023-03-23T16:39:40;18.60;92.80
7496;DHT22;3789;47.064;15.482;2023-03-23T16:42:10;18.50;93.00
7496;DHT22;3789;47.064;15.482;2023-03-23T16:44:38;18.40;93.30
7496;DHT22;3789;47.064;15.482;2023-03-23T16:47:16;18.30;93.10
7496;DHT22;3789;47.064;15.482;2023-03-23T16:49:51;18.20;93.40
7496;DHT22;3789;47.064;15.482;2023-03-23T16:52:29;18.20;93.50
7496;DHT22;3789;47.064;15.482;2023-03-23T16:54:57;18.10;93.60
7496;DHT22;3789;47.064;15.482;2023-03-23T16:57:33;18.00;93.70
7496;DHT22;3789;47.064;15.482;2023-03-23T17:00:07;17.90;93.80
7496;DHT22;3789;47.064;15.482;2023-03-23T17:02:37;17.80;93.90
7496;DHT22;3789;47.064;15.482;2023-03-23T17:05:12;17.80;94.00
7496;DHT22;3789;47.064;15.482;2023-03-23T17:07:43;17.70;94.10
7496;DHT22;3789;47.064;15.482;2023-03-23T17:10:14;17.60;94.30
7496;DHT22;3789;47.064;15.482;2023-03-23T17:12:43;17.50;94.40
7496;DHT22;3789;47.064;15.482;2023-03-23T17:15:15;17.40;94.50
7496;DHT22;3789;47.064;15.482;2023-03-23T17:17:51;17.40;94.70
7496;DHT22;3789;47.064;15.482;2023-03-23T17:20:23;17.30;94.80
7496;DHT22;3789;47.064;15.482;2023-03-23T17:22:53;17.30;94.90
7496;DHT22;3789;47.064;15.482;2023-03-23T17:25:20;17.20;94.90
7496;DHT22;3789;47.064;15.482;2023-03-23T17:27:49;17.20;95.00
7496;DHT22;3789;47.064;15.482;2023-03-23T17:30:34;17.10;95.00
7496;DHT22;3789;47.064;15.482;2023-03-23T17:33:02;17.00;95.10
7496;DHT22;3789;47.064;15.482;2023-03-23T17:35:41;17.00;95.20
7496;DHT22;3789;47.064;15.482;2023-03-23T17:38:09;16.90;95.30
7496;DHT22;3789;47.064;15.482;2023-03-23T17:40:38;16.90;95.50
7496;DHT22;3789;47.064;15.482;2023-03-23T17:43:08;16.80;95.60
7496;DHT22;3789;47.064;15.482;2023-03-23T17:45:37;16.80;95.70
7496;DHT22;3789;47.064;15.482;2023-03-23T17:48:05;16.70;95.70
7496;DHT22;3789;47.064;15.482;2023-03-23T17:50:35;16.70;96.10
7496;DHT22;3789;47.064;15.482;2023-03-23T17:53:06;16.60;95.80
7496;DHT22;3789;47.064;15.482;2023-03-23T17:55:34;16.60;96.00
7496;DHT22;3789;47.064;15.482;2023-03-23T17:58:12;16.60;96.10
7496;DHT22;3789;47.064;15.482;2023-03-23T18:00:43;16.50;96.20
7496;DHT22;3789;47.064;15.482;2023-03-23T18:03:13;16.50;96.20
7496;DHT22;3789;47.064;15.482;2023-03-23T18:05:43;16.40;96.30
7496;DHT22;3789;47.064;15.482;2023-03-23T18:08:12;16.30;96.40
7496;DHT22;3789;47.064;15.482;2023-03-23T18:10:42;16.20;96.40
7496;DHT22;3789;47.064;15.482;2023-03-23T18:13:12;16.20;96.50
7496;DHT22;3789;47.064;15.482;2023-03-23T18:15:43;16.10;96.40
7496;DHT22;3789;47.064;15.482;2023-03-23T18:18:15;16.10;96.40
7496;DHT22;3789;47.064;15.482;2023-03-23T18:20:43;16.00;96.50
7496;DHT22;3789;47.064;15.482;2023-03-23T18:23:12;16.00;96.70
7496;DHT22;3789;47.064;15.482;2023-03-23T18:25:50;15.90;96.80
7496;DHT22;3789;47.064;15.482;2023-03-23T18:28:21;15.90;97.10
7496;DHT22;3789;47.064;15.482;2023-03-23T18:30:51;15.80;97.30
7496;DHT22;3789;47.064;15.482;2023-03-23T18:33:21;15.80;97.50
7496;DHT22;3789;47.064;15.482;2023-03-23T18:35:59;15.80;97.70
7496;DHT22;3789;47.064;15.482;2023-03-23T18:38:32;15.80;97.80
7496;DHT22;3789;47.064;15.482;2023-03-23T18:41:09;15.70;97.90
7496;DHT22;3789;47.064;15.482;2023-03-23T18:43:38;15.70;97.90
7496;DHT22;3789;47.064;15.482;2023-03-23T18:46:07;15.70;97.80